createdAt,value
2022-10-22T00:03:52.067Z,90.10
2022-10-22T00:07:53.514Z,91.12
2022-10-22T00:11:54.966Z,90.61
2022-10-22T00:15:57.770Z,90.27
2022-10-22T00:19:59.446Z,89.44
2022-10-22T00:24:01.548Z,88.69
2022-10-22T00:28:03.947Z,88.35
2022-10-22T00:32:07.213Z,87.79
2022-10-22T00:36:09.332Z,87.09
2022-10-22T00:40:12.397Z,87.70
2022-10-22T00:44:51.118Z,88.13
2022-10-22T00:48:56.375Z,88.96
2022-10-22T00:52:58.534Z,89.85
2022-10-22T00:57:00.883Z,89.08
2022-10-22T01:01:03.193Z,89.93
2022-10-22T01:05:07.247Z,90.21
2022-10-22T01:09:20.153Z,89.38
2022-10-22T01:13:31.696Z,89.49
2022-10-22T01:17:41.193Z,90.15
2022-10-22T01:21:48.711Z,90.73
2022-10-22T01:25:57.165Z,90.59
2022-10-22T01:30:03.514Z,91.08
2022-10-22T01:34:08.316Z,90.69
2022-10-22T01:38:15.026Z,91.29
2022-10-22T01:42:16.673Z,91.73
2022-10-22T01:46:22.260Z,92.08
2022-10-22T01:50:48.118Z,91.78
2022-10-22T01:54:59.638Z,92.33
2022-10-22T01:59:06.890Z,91.82
2022-10-22T02:03:18.612Z,92.05
2022-10-22T02:07:29.166Z,92.22
2022-10-22T02:11:31.310Z,92.26
2022-10-22T02:15:38.258Z,92.01
2022-10-22T02:19:47.589Z,91.52
2022-10-22T02:23:49.325Z,91.86
2022-10-22T02:27:59.341Z,90.85
2022-10-22T02:32:03.641Z,91.35
2022-10-22T02:40:32.370Z,91.50
2022-10-22T02:44:34.134Z,92.08
2022-10-22T02:48:35.579Z,91.92
2022-10-22T02:52:39.035Z,91.79
2022-10-22T02:56:40.987Z,92.38
2022-10-22T03:00:42.675Z,92.27
2022-10-22T03:04:44.147Z,91.75
2022-10-22T03:08:47.090Z,91.79
2022-10-22T03:12:48.633Z,92.26
2022-10-22T03:16:50.097Z,92.45
2022-10-22T03:21:04.352Z,92.62
2022-10-22T03:25:11.502Z,92.14
2022-10-22T03:29:15.255Z,93.39
2022-10-22T03:33:16.863Z,92.55
2022-10-22T03:37:19.027Z,92.42
2022-10-22T03:41:22.235Z,92.96
2022-10-22T03:45:23.895Z,93.47
2022-10-22T03:49:27.130Z,93.85
2022-10-22T03:53:28.842Z,93.21
2022-10-22T03:57:31.994Z,93.32
2022-10-22T04:01:33.598Z,93.52
2022-10-22T04:05:35.118Z,93.47
2022-10-22T04:09:36.714Z,93.59
2022-10-22T04:13:39.613Z,92.81
2022-10-22T04:17:41.291Z,93.58
2022-10-22T04:21:43.222Z,93.10
2022-10-22T04:25:44.899Z,93.46
2022-10-22T04:29:47.690Z,93.49
2022-10-22T04:33:52.842Z,93.26
2022-10-22T04:37:54.302Z,93.09
2022-10-22T04:41:55.939Z,93.69
2022-10-22T04:46:01.708Z,93.19
2022-10-22T04:50:03.912Z,92.79
2022-10-22T04:54:05.681Z,93.34
2022-10-22T04:58:07.094Z,92.58
2022-10-22T05:02:10.142Z,93.11
2022-10-22T05:10:19.630Z,92.91
2022-10-22T05:14:22.985Z,94.04
2022-10-22T05:18:25.771Z,93.47
2022-10-22T05:22:27.501Z,93.97
2022-10-22T05:26:29.883Z,93.58
2022-10-22T05:30:31.686Z,94.02
2022-10-22T05:34:34.857Z,93.95
2022-10-22T05:38:36.546Z,94.41
2022-10-22T05:42:38.408Z,94.49
2022-10-22T05:46:40.675Z,93.36
2022-10-22T05:50:43.735Z,93.56
2022-10-22T05:54:45.387Z,93.25
2022-10-22T05:58:46.810Z,93.50
2022-10-22T06:02:50.918Z,93.63
2022-10-22T06:06:54.022Z,93.46
2022-10-22T06:10:55.814Z,93.12
2022-10-22T06:14:57.279Z,93.21
2022-10-22T06:19:00.023Z,93.01
2022-10-22T06:23:03.122Z,93.20
2022-10-22T06:27:04.794Z,93.04
2022-10-22T06:31:06.890Z,92.61
2022-10-22T06:35:08.534Z,93.02
2022-10-22T06:39:14.624Z,93.43
2022-10-22T06:43:16.339Z,93.11
2022-10-22T06:47:18.036Z,92.93
2022-10-22T06:51:19.807Z,92.47
2022-10-22T06:55:22.869Z,91.94
2022-10-22T06:59:24.466Z,90.22
2022-10-22T07:03:25.982Z,90.22
2022-10-22T07:07:27.648Z,90.16
2022-10-22T07:11:37.037Z,89.43
2022-10-22T07:15:39.490Z,89.85
2022-10-22T07:19:40.911Z,88.26
2022-10-22T07:23:42.914Z,87.12
2022-10-22T07:27:45.874Z,87.22
2022-10-22T07:31:47.718Z,84.40
2022-10-22T07:35:49.224Z,81.75
2022-10-22T07:39:50.680Z,81.28
2022-10-22T07:43:53.640Z,81.65
2022-10-22T07:47:55.292Z,79.45
2022-10-22T07:51:56.812Z,78.96
2022-10-22T07:55:58.384Z,79.59
2022-10-22T08:00:01.545Z,78.81
2022-10-22T08:04:02.997Z,77.15
2022-10-22T08:08:04.761Z,76.69
2022-10-22T08:12:07.019Z,76.94
2022-10-22T08:16:10.295Z,76.87
2022-10-22T08:20:12.079Z,77.85
2022-10-22T08:24:14.398Z,77.25
2022-10-22T08:28:19.890Z,77.72
2022-10-22T08:32:24.958Z,76.33
2022-10-22T08:36:26.759Z,75.65
2022-10-22T08:40:31.988Z,75.09
2022-10-22T08:44:59.119Z,74.19
2022-10-22T08:49:04.585Z,77.29
2022-10-22T08:53:16.478Z,75.34
2022-10-22T08:57:42.365Z,77.70
2022-10-22T09:01:46.773Z,75.11
2022-10-22T09:05:58.849Z,77.03
2022-10-22T09:10:01.766Z,74.47
2022-10-22T09:14:04.113Z,74.50
2022-10-22T09:18:21.514Z,78.59
2022-10-22T09:26:41.857Z,75.59
2022-10-22T09:30:43.497Z,73.84
2022-10-22T09:34:46.022Z,74.31
2022-10-22T09:38:51.209Z,74.29
2022-10-22T09:42:52.718Z,75.20
2022-10-22T09:46:57.905Z,74.80
2022-10-22T09:51:05.981Z,74.48
2022-10-22T09:55:15.982Z,72.99
2022-10-22T09:59:24.433Z,74.79
2022-10-22T10:03:30.688Z,75.82
2022-10-22T10:07:34.184Z,73.25
2022-10-22T10:11:45.412Z,73.49
2022-10-22T10:15:54.302Z,71.60
2022-10-22T10:20:05.630Z,72.90
2022-10-22T10:24:14.553Z,75.12
2022-10-22T10:28:29.776Z,73.19
2022-10-22T10:32:46.171Z,73.52
2022-10-22T10:36:59.803Z,74.41
2022-10-22T10:41:14.385Z,73.02
2022-10-22T10:45:23.203Z,70.81
2022-10-22T10:49:26.507Z,70.70
2022-10-22T10:53:42.823Z,70.63
2022-10-22T10:57:53.830Z,70.02
2022-10-22T11:02:17.841Z,71.26
2022-10-22T11:06:23.147Z,69.36
2022-10-22T11:10:31.665Z,70.89
2022-10-22T11:14:39.999Z,68.88
2022-10-22T11:18:48.317Z,68.60
2022-10-22T11:23:17.726Z,69.16
2022-10-22T11:27:24.366Z,68.05
2022-10-22T11:31:26.763Z,69.17
2022-10-22T11:35:33.912Z,69.15
2022-10-22T11:39:40.755Z,68.24
2022-10-22T11:43:57.606Z,67.44
2022-10-22T11:48:07.137Z,66.76
2022-10-22T11:52:37.120Z,66.89
2022-10-22T11:56:39.241Z,66.58
2022-10-22T12:00:47.816Z,66.78
2022-10-22T12:04:49.367Z,66.20
2022-10-22T12:08:58.958Z,68.08
2022-10-22T12:13:05.649Z,67.76
2022-10-22T12:17:11.426Z,66.41
2022-10-22T12:21:13.612Z,66.82
2022-10-22T12:25:23.147Z,65.81
2022-10-22T12:29:24.873Z,63.07
2022-10-22T12:33:26.326Z,61.57
2022-10-22T12:37:29.643Z,58.71
2022-10-22T12:41:35.076Z,58.91
2022-10-22T12:45:36.999Z,57.45
2022-10-22T12:49:42.988Z,57.51
2022-10-22T12:53:47.426Z,60.80
2022-10-22T12:57:50.403Z,58.43
2022-10-22T13:01:54.251Z,61.00
2022-10-22T13:05:55.783Z,60.17
2022-10-22T13:09:59.531Z,60.96
2022-10-22T13:14:03.796Z,59.95
2022-10-22T13:18:15.728Z,62.43
2022-10-22T13:22:32.712Z,61.55
2022-10-22T13:26:38.645Z,61.56
2022-10-22T13:30:52.402Z,61.73
2022-10-22T13:35:07.594Z,62.35
2022-10-22T13:39:16.892Z,61.40
2022-10-22T13:43:19.385Z,61.06
2022-10-22T13:47:27.835Z,65.58
2022-10-22T13:51:34.002Z,62.58
2022-10-22T13:55:35.726Z,63.96
2022-10-22T13:59:41.599Z,60.53
2022-10-22T14:03:44.677Z,60.04
2022-10-22T14:07:46.316Z,61.64
2022-10-22T14:11:47.811Z,66.94
2022-10-22T14:15:51.327Z,69.99
2022-10-22T14:19:55.449Z,67.86
2022-10-22T14:23:56.903Z,65.56
2022-10-22T14:27:58.572Z,66.40
2022-10-22T14:32:00.273Z,65.28
2022-10-22T14:36:03.261Z,67.25
2022-10-22T14:40:05.923Z,71.60
2022-10-22T14:44:10.168Z,70.06
2022-10-22T14:48:11.836Z,69.68
2022-10-22T14:52:15.103Z,66.49
2022-10-22T14:56:18.129Z,68.97
2022-10-22T15:00:19.852Z,65.76
2022-10-22T15:04:22.085Z,66.39
2022-10-22T15:08:25.016Z,65.12
2022-10-22T15:12:26.812Z,71.13
2022-10-22T15:16:28.388Z,73.19
2022-10-22T15:20:30.068Z,74.26
2022-10-22T15:24:32.962Z,68.38
2022-10-22T15:28:34.611Z,74.57
2022-10-22T15:32:36.191Z,74.69
2022-10-22T15:36:37.588Z,68.27
2022-10-22T15:40:40.987Z,73.20
2022-10-22T15:44:42.730Z,75.21
2022-10-22T15:48:45.344Z,76.64
2022-10-22T15:52:46.911Z,77.39
2022-10-22T15:56:50.603Z,77.74
2022-10-22T16:00:52.407Z,77.49
2022-10-22T16:04:53.870Z,78.28
2022-10-22T16:08:57.886Z,77.77
2022-10-22T16:13:00.779Z,77.49
2022-10-22T16:17:02.183Z,77.67
2022-10-22T16:21:03.971Z,78.03
2022-10-22T16:25:06.163Z,78.88
2022-10-22T16:29:09.083Z,78.63
2022-10-22T16:33:11.489Z,78.82
2022-10-22T16:37:12.911Z,78.93
2022-10-22T16:41:16.170Z,79.53
2022-10-22T16:45:19.107Z,80.18
2022-10-22T16:49:20.631Z,81.58
2022-10-22T16:53:22.245Z,81.62
2022-10-22T16:57:24.010Z,80.81
2022-10-22T17:01:27.657Z,80.31
2022-10-22T17:05:29.254Z,80.35
2022-10-22T17:09:30.940Z,80.46
2022-10-22T17:13:32.363Z,78.05
2022-10-22T17:17:35.230Z,74.78
2022-10-22T17:21:36.822Z,73.20
2022-10-22T17:25:42.986Z,77.77
2022-10-22T17:29:44.498Z,79.79
2022-10-22T17:33:48.928Z,80.32
2022-10-22T17:37:50.483Z,80.37
2022-10-22T17:41:52.489Z,80.46
2022-10-22T17:46:02.264Z,78.30
2022-10-22T17:50:05.903Z,77.21
2022-10-22T17:54:09.807Z,75.50
2022-10-22T17:58:11.815Z,77.27
2022-10-22T18:02:16.581Z,78.57
2022-10-22T18:06:19.862Z,79.46
2022-10-22T18:10:21.439Z,79.70
2022-10-22T18:14:23.579Z,79.95
2022-10-22T18:18:25.222Z,79.64
2022-10-22T18:22:28.227Z,79.96
2022-10-22T18:26:29.784Z,80.51
2022-10-22T18:30:31.333Z,80.29
2022-10-22T18:34:33.971Z,80.88
2022-10-22T18:38:37.383Z,81.04
2022-10-22T18:42:39.850Z,81.32
2022-10-22T18:46:41.576Z,81.92
2022-10-22T18:50:43.467Z,81.93
2022-10-22T18:54:46.259Z,82.36
2022-10-22T18:58:48.920Z,82.81
2022-10-22T19:02:50.519Z,82.97
2022-10-22T19:06:52.091Z,82.97
2022-10-22T19:10:55.132Z,83.32
2022-10-22T19:14:56.530Z,83.43
2022-10-22T19:19:03.323Z,83.98
2022-10-22T19:23:04.967Z,83.59
2022-10-22T19:27:07.975Z,82.55
2022-10-22T19:31:12.556Z,82.00
2022-10-22T19:35:14.117Z,80.83
2022-10-22T19:39:16.700Z,80.44
2022-10-22T19:43:19.471Z,79.57
2022-10-22T19:47:20.900Z,79.13
2022-10-22T19:51:25.980Z,80.18
2022-10-22T19:55:27.587Z,79.27
2022-10-22T19:59:32.164Z,78.87
2022-10-22T20:03:35.247Z,79.41
2022-10-22T20:07:36.690Z,79.92
2022-10-22T20:11:39.158Z,79.89
2022-10-22T20:15:42.059Z,80.24
2022-10-22T20:19:43.474Z,80.96
2022-10-22T20:23:45.955Z,80.04
2022-10-22T20:27:47.523Z,79.70
2022-10-22T20:31:50.659Z,79.67
2022-10-22T20:35:59.230Z,79.34
2022-10-22T20:40:00.647Z,81.42
2022-10-22T20:44:02.092Z,82.49
2022-10-22T20:48:05.687Z,84.05
2022-10-22T20:52:07.508Z,83.19
2022-10-22T20:56:09.282Z,83.77
2022-10-22T21:00:11.755Z,84.26
2022-10-22T21:04:15.140Z,84.63
2022-10-22T21:08:16.835Z,85.04
2022-10-22T21:12:18.607Z,85.00
2022-10-22T21:16:20.146Z,85.76
2022-10-22T21:20:24.770Z,86.12
2022-10-22T21:24:26.579Z,86.21
2022-10-22T21:32:35.147Z,86.28
2022-10-22T21:36:38.065Z,86.27
2022-10-22T21:40:39.471Z,86.02
2022-10-22T21:44:40.999Z,86.24
2022-10-22T21:48:43.042Z,86.11
2022-10-22T21:52:45.778Z,85.80
2022-10-22T21:56:47.286Z,85.85
2022-10-22T22:00:55.122Z,86.18
2022-10-22T22:04:56.703Z,87.11
2022-10-22T22:08:59.664Z,86.64
2022-10-22T22:13:01.266Z,85.67
2022-10-22T22:17:02.804Z,86.06
2022-10-22T22:21:05.861Z,86.48
2022-10-22T22:25:09.350Z,86.23
2022-10-22T22:29:11.094Z,86.29
2022-10-22T22:33:12.623Z,85.83
2022-10-22T22:37:14.183Z,85.39
2022-10-22T22:41:16.905Z,85.81
2022-10-22T22:45:18.444Z,86.34
2022-10-22T22:49:20.025Z,86.67
2022-10-22T22:53:21.682Z,86.61
2022-10-22T22:57:24.602Z,86.20
2022-10-22T23:01:28.041Z,86.29
2022-10-22T23:05:29.727Z,85.96
2022-10-22T23:09:31.266Z,85.33
2022-10-22T23:13:34.474Z,84.82
2022-10-22T23:21:46.235Z,84.67
2022-10-22T23:25:47.952Z,85.08
2022-10-22T23:29:50.859Z,85.35
2022-10-22T23:33:52.406Z,85.60
2022-10-22T23:37:53.786Z,86.06
2022-10-22T23:41:55.462Z,86.22
2022-10-22T23:45:58.354Z,86.29
2022-10-22T23:49:59.895Z,87.32
2022-10-22T23:54:03.559Z,87.52
2022-10-22T23:58:04.954Z,87.58
